createdAt,value
2022-08-25T00:02:09.837Z,19.30
2022-08-25T00:04:38.003Z,18.99
2022-08-25T00:07:06.347Z,19.35
2022-08-25T00:09:35.399Z,19.30
2022-08-25T00:12:05.132Z,19.28
2022-08-25T00:14:37.396Z,19.23
2022-08-25T00:17:06.265Z,19.05
2022-08-25T00:19:37.894Z,19.22
2022-08-25T00:22:07.958Z,19.25
2022-08-25T00:24:35.601Z,19.14
2022-08-25T00:27:03.709Z,19.14
2022-08-25T00:29:32.189Z,19.13
2022-08-25T00:32:00.984Z,19.06
2022-08-25T00:34:35.305Z,19.02
2022-08-25T00:37:07.130Z,19.01
2022-08-25T00:39:34.207Z,18.94
2022-08-25T00:42:03.133Z,18.87
2022-08-25T00:44:34.078Z,18.97
2022-08-25T00:47:05.494Z,18.99
2022-08-25T00:49:58.923Z,18.62
2022-08-25T00:52:36.382Z,18.87
2022-08-25T00:55:36.985Z,18.73
2022-08-25T00:58:15.849Z,18.86
2022-08-25T01:00:49.473Z,18.55
2022-08-25T01:03:19.139Z,18.73
2022-08-25T01:05:47.841Z,18.74
2022-08-25T01:08:16.638Z,18.80
2022-08-25T01:10:46.499Z,18.66
2022-08-25T01:13:34.480Z,18.75
2022-08-25T01:16:02.356Z,18.68
2022-08-25T01:18:44.650Z,18.70
2022-08-25T01:21:11.740Z,18.70
2022-08-25T01:23:39.008Z,18.63
2022-08-25T01:26:19.582Z,18.70
2022-08-25T01:29:11.038Z,18.70
2022-08-25T01:31:40.113Z,18.66
2022-08-25T01:34:09.254Z,18.70
2022-08-25T01:36:36.711Z,18.40
2022-08-25T01:39:05.762Z,18.38
2022-08-25T01:41:41.324Z,18.54
2022-08-25T01:44:09.124Z,18.31
2022-08-25T01:46:41.403Z,18.13
2022-08-25T01:49:08.566Z,18.36
2022-08-25T01:51:48.153Z,18.60
2022-08-25T01:54:15.411Z,18.60
2022-08-25T01:56:42.712Z,18.24
2022-08-25T01:59:10.616Z,18.43
2022-08-25T02:01:37.949Z,18.52
2022-08-25T02:04:05.927Z,18.56
2022-08-25T02:06:35.453Z,18.53
2022-08-25T02:09:09.876Z,18.15
2022-08-25T02:11:39.687Z,18.46
2022-08-25T02:14:08.526Z,18.48
2022-08-25T02:16:39.797Z,18.50
2022-08-25T02:19:11.962Z,18.23
2022-08-25T02:21:39.688Z,18.48
2022-08-25T02:24:08.538Z,18.18
2022-08-25T02:26:36.510Z,18.37
2022-08-25T02:29:07.361Z,18.17
2022-08-25T02:31:35.817Z,18.42
2022-08-25T02:34:03.924Z,18.42
2022-08-25T02:36:32.274Z,18.22
2022-08-25T02:39:00.903Z,18.40
2022-08-25T02:41:31.412Z,18.31
2022-08-25T02:44:01.033Z,18.44
2022-08-25T02:46:29.121Z,18.45
2022-08-25T02:48:56.233Z,18.35
2022-08-25T02:51:25.529Z,18.43
2022-08-25T02:53:53.110Z,17.84
2022-08-25T02:56:20.711Z,18.37
2022-08-25T02:58:48.267Z,18.40
2022-08-25T03:01:16.955Z,18.36
2022-08-25T03:03:47.654Z,18.19
2022-08-25T03:06:20.530Z,18.33
2022-08-25T03:08:47.544Z,18.29
2022-08-25T03:11:14.707Z,18.24
2022-08-25T03:13:41.821Z,17.82
2022-08-25T03:16:11.438Z,18.08
2022-08-25T03:18:42.329Z,18.23
2022-08-25T03:21:12.282Z,18.23
2022-08-25T03:23:41.936Z,18.15
2022-08-25T03:26:28.505Z,18.16
2022-08-25T03:28:55.562Z,18.13
2022-08-25T03:31:26.069Z,18.21
2022-08-25T03:33:53.849Z,18.13
2022-08-25T03:36:20.851Z,18.19
2022-08-25T03:38:47.806Z,18.10
2022-08-25T03:41:27.029Z,18.22
2022-08-25T03:43:57.399Z,18.11
2022-08-25T03:46:32.212Z,18.03
2022-08-25T03:49:02.755Z,18.01
2022-08-25T03:51:34.741Z,18.09
2022-08-25T03:54:04.501Z,17.86
2022-08-25T03:56:31.742Z,18.14
2022-08-25T03:58:59.422Z,18.20
2022-08-25T04:01:27.428Z,18.29
2022-08-25T04:03:55.736Z,18.07
2022-08-25T04:06:23.313Z,18.26
2022-08-25T04:08:52.716Z,18.31
2022-08-25T04:11:23.374Z,18.36
2022-08-25T04:13:51.915Z,18.10
2022-08-25T04:16:24.317Z,18.21
2022-08-25T04:18:55.064Z,18.19
2022-08-25T04:21:23.245Z,18.06
2022-08-25T04:23:52.131Z,18.20
2022-08-25T04:26:25.289Z,18.22
2022-08-25T04:28:52.872Z,17.96
2022-08-25T04:31:22.006Z,18.19
2022-08-25T04:33:50.125Z,18.24
2022-08-25T04:36:20.221Z,18.27
2022-08-25T04:38:49.749Z,18.42
2022-08-25T04:41:21.400Z,18.40
2022-08-25T04:43:48.746Z,18.06
2022-08-25T04:46:20.231Z,18.40
2022-08-25T04:48:50.321Z,18.48
2022-08-25T04:51:23.427Z,18.50
2022-08-25T04:53:51.599Z,18.32
2022-08-25T04:56:25.129Z,18.62
2022-08-25T04:58:55.378Z,18.60
2022-08-25T05:01:25.941Z,18.50
2022-08-25T05:03:59.265Z,18.55
2022-08-25T05:06:28.765Z,18.46
2022-08-25T05:08:58.306Z,18.69
2022-08-25T05:11:26.645Z,18.76
2022-08-25T05:13:57.354Z,19.02
2022-08-25T05:16:26.975Z,19.08
2022-08-25T05:18:55.846Z,19.01
2022-08-25T05:21:26.700Z,19.16
2022-08-25T05:24:00.417Z,19.24
2022-08-25T05:26:31.767Z,19.32
2022-08-25T05:29:04.045Z,19.37
2022-08-25T05:31:33.976Z,19.46
2022-08-25T05:34:08.343Z,19.49
2022-08-25T05:36:35.987Z,19.45
2022-08-25T05:39:04.269Z,19.39
2022-08-25T05:41:32.015Z,19.43
2022-08-25T05:43:59.148Z,19.32
2022-08-25T05:46:26.727Z,18.93
2022-08-25T05:48:54.540Z,19.55
2022-08-25T05:51:22.557Z,19.47
2022-08-25T05:53:51.492Z,19.63
2022-08-25T05:56:19.880Z,19.35
2022-08-25T05:58:47.730Z,19.74
2022-08-25T06:01:46.776Z,19.43
2022-08-25T06:04:18.213Z,19.73
2022-08-25T06:06:45.321Z,19.74
2022-08-25T06:09:12.591Z,19.72
2022-08-25T06:11:41.093Z,19.77
2022-08-25T06:14:09.997Z,19.84
2022-08-25T06:16:39.136Z,19.86
2022-08-25T06:19:09.573Z,19.97
2022-08-25T06:21:39.259Z,19.96
2022-08-25T06:24:10.974Z,19.86
2022-08-25T06:26:40.614Z,19.81
2022-08-25T06:29:08.112Z,19.77
2022-08-25T06:31:35.142Z,20.02
2022-08-25T06:34:02.232Z,20.03
2022-08-25T06:36:29.200Z,20.14
2022-08-25T06:38:56.506Z,20.12
2022-08-25T06:41:23.644Z,20.34
2022-08-25T06:43:55.799Z,20.40
2022-08-25T06:46:31.742Z,20.52
2022-08-25T06:49:08.216Z,20.66
2022-08-25T06:51:36.496Z,20.29
2022-08-25T06:54:07.432Z,20.70
2022-08-25T06:56:34.759Z,20.81
2022-08-25T06:59:06.877Z,20.94
2022-08-25T07:01:35.093Z,21.11
2022-08-25T07:04:07.646Z,21.20
2022-08-25T07:06:37.792Z,21.08
2022-08-25T07:09:07.668Z,21.04
2022-08-25T07:11:35.400Z,21.44
2022-08-25T07:14:08.631Z,21.51
2022-08-25T07:16:38.383Z,21.61
2022-08-25T07:19:08.301Z,21.73
2022-08-25T07:21:39.785Z,21.54
2022-08-25T07:24:11.236Z,21.96
2022-08-25T07:26:42.240Z,21.30
2022-08-25T07:29:42.705Z,21.60
2022-08-25T07:32:09.848Z,21.52
2022-08-25T07:34:56.552Z,22.07
2022-08-25T07:37:47.906Z,22.27
2022-08-25T07:40:17.726Z,22.31
2022-08-25T07:42:45.926Z,22.44
2022-08-25T07:45:15.476Z,22.73
2022-08-25T07:47:44.838Z,22.35
2022-08-25T07:50:13.688Z,22.83
2022-08-25T07:52:42.212Z,22.88
2022-08-25T07:55:10.906Z,23.13
2022-08-25T07:57:41.794Z,23.03
2022-08-25T08:00:13.797Z,23.03
2022-08-25T08:02:42.765Z,23.26
2022-08-25T08:05:13.559Z,23.45
2022-08-25T08:07:43.691Z,23.62
2022-08-25T08:13:02.636Z,23.44
2022-08-25T08:15:30.301Z,23.88
2022-08-25T08:17:59.531Z,23.72
2022-08-25T08:20:28.833Z,23.85
2022-08-25T08:22:56.057Z,24.17
2022-08-25T08:25:27.319Z,24.32
2022-08-25T08:27:56.676Z,24.41
2022-08-25T08:30:26.196Z,24.16
2022-08-25T08:33:12.335Z,24.63
2022-08-25T08:35:43.326Z,24.52
2022-08-25T08:38:17.303Z,25.07
2022-08-25T08:41:23.358Z,25.33
2022-08-25T08:47:03.543Z,25.89
2022-08-25T08:49:47.344Z,26.03
2022-08-25T08:52:19.425Z,25.58
2022-08-25T08:54:56.814Z,25.58
2022-08-25T08:57:28.573Z,25.70
2022-08-25T09:00:05.981Z,25.62
2022-08-25T09:02:52.302Z,25.44
2022-08-25T09:05:23.181Z,25.75
2022-08-25T09:08:07.392Z,25.98
2022-08-25T09:11:13.341Z,26.41
2022-08-25T09:14:43.632Z,26.83
2022-08-25T09:17:54.822Z,27.16
2022-08-25T09:20:43.656Z,26.95
2022-08-25T09:23:44.182Z,26.72
2022-08-25T09:26:36.267Z,26.66
2022-08-25T09:29:23.436Z,26.31
2022-08-25T09:31:58.663Z,27.06
2022-08-25T09:34:33.759Z,27.57
2022-08-25T09:37:01.713Z,27.91
2022-08-25T09:39:28.913Z,28.61
2022-08-25T09:42:00.408Z,28.95
2022-08-25T09:44:33.116Z,29.36
2022-08-25T09:47:18.229Z,29.88
2022-08-25T09:50:01.686Z,30.11
2022-08-25T09:52:42.437Z,29.58
2022-08-25T09:55:13.301Z,29.43
2022-08-25T09:57:55.825Z,29.38
2022-08-25T10:00:31.805Z,29.46
2022-08-25T10:03:36.859Z,29.39
2022-08-25T10:06:13.307Z,29.77
2022-08-25T10:08:43.682Z,29.80
2022-08-25T10:11:15.517Z,29.01
2022-08-25T10:13:48.073Z,29.17
2022-08-25T10:16:36.017Z,29.26
2022-08-25T10:19:23.489Z,28.74
2022-08-25T10:22:34.787Z,28.28
2022-08-25T10:25:05.336Z,28.57
2022-08-25T10:28:05.847Z,28.60
2022-08-25T10:31:16.333Z,29.42
2022-08-25T10:34:36.648Z,28.70
2022-08-25T10:37:51.011Z,28.21
2022-08-25T10:40:37.225Z,27.99
2022-08-25T10:43:23.995Z,28.44
2022-08-25T10:46:25.978Z,28.36
2022-08-25T10:49:18.470Z,28.93
2022-08-25T10:52:00.982Z,28.85
2022-08-25T10:54:30.705Z,29.97
2022-08-25T10:57:18.233Z,31.07
2022-08-25T11:00:13.969Z,31.13
2022-08-25T11:03:13.952Z,31.55
2022-08-25T11:06:07.390Z,29.52
2022-08-25T11:08:58.663Z,29.42
2022-08-25T11:11:52.223Z,30.19
2022-08-25T11:14:34.541Z,30.91
2022-08-25T11:17:21.665Z,30.98
2022-08-25T11:19:55.503Z,31.45
2022-08-25T11:22:37.108Z,31.49
2022-08-25T11:25:10.721Z,31.17
2022-08-25T11:28:20.528Z,31.44
2022-08-25T11:30:53.117Z,31.76
2022-08-25T11:33:24.694Z,31.08
2022-08-25T11:36:05.924Z,30.40
2022-08-25T11:39:15.664Z,30.30
2022-08-25T11:42:29.307Z,31.09
2022-08-25T11:45:54.211Z,31.02
2022-08-25T11:48:46.196Z,32.45
2022-08-25T11:51:33.791Z,32.80
2022-08-25T11:54:28.796Z,33.31
2022-08-25T11:57:06.472Z,33.36
2022-08-25T11:59:52.735Z,33.49
2022-08-25T12:02:46.404Z,32.02
2022-08-25T12:05:19.976Z,31.44
2022-08-25T12:08:11.493Z,31.11
2022-08-25T12:11:11.406Z,30.62
2022-08-25T12:13:50.760Z,30.89
2022-08-25T12:16:36.309Z,30.88
2022-08-25T12:19:46.774Z,30.66
2022-08-25T12:22:16.162Z,29.90
2022-08-25T12:24:48.081Z,29.60
2022-08-25T12:27:41.518Z,29.26
2022-08-25T12:30:23.327Z,29.51
2022-08-25T12:33:23.010Z,29.18
2022-08-25T12:36:02.095Z,29.19
2022-08-25T12:38:44.093Z,29.37
2022-08-25T12:41:19.145Z,29.37
2022-08-25T12:43:49.518Z,29.15
2022-08-25T12:46:26.294Z,29.19
2022-08-25T12:48:58.567Z,29.36
2022-08-25T12:51:48.769Z,29.61
2022-08-25T12:54:47.507Z,29.82
2022-08-25T12:57:31.475Z,29.66
2022-08-25T13:00:16.770Z,29.73
2022-08-25T13:03:09.951Z,29.78
2022-08-25T13:06:05.854Z,29.80
2022-08-25T13:09:32.180Z,29.67
2022-08-25T13:12:25.954Z,29.40
2022-08-25T13:14:56.762Z,29.49
2022-08-25T13:17:33.728Z,29.24
2022-08-25T13:20:29.203Z,29.23
2022-08-25T13:23:00.985Z,29.29
2022-08-25T13:25:33.370Z,29.00
2022-08-25T13:28:06.525Z,29.00
2022-08-25T13:30:39.329Z,29.19
2022-08-25T13:33:22.463Z,29.43
2022-08-25T13:36:16.366Z,29.47
2022-08-25T13:38:47.382Z,29.74
2022-08-25T13:41:28.625Z,29.55
2022-08-25T13:44:00.832Z,29.83
2022-08-25T13:46:30.658Z,29.91
2022-08-25T13:49:08.802Z,29.78
2022-08-25T13:51:39.532Z,29.51
2022-08-25T13:54:30.196Z,29.43
2022-08-25T13:57:12.189Z,29.59
2022-08-25T13:59:43.641Z,29.18
2022-08-25T14:02:42.732Z,29.13
2022-08-25T14:05:14.132Z,28.73
2022-08-25T14:08:09.288Z,28.82
2022-08-25T14:10:44.945Z,28.96
2022-08-25T14:13:31.017Z,29.12
2022-08-25T14:16:23.086Z,29.35
2022-08-25T14:18:58.840Z,29.26
2022-08-25T14:21:30.636Z,29.39
2022-08-25T14:23:59.387Z,29.45
2022-08-25T14:26:27.289Z,29.39
2022-08-25T14:28:54.377Z,29.41
2022-08-25T14:31:28.557Z,29.48
2022-08-25T14:34:04.927Z,29.61
2022-08-25T14:36:35.629Z,29.48
2022-08-25T14:39:08.932Z,29.33
2022-08-25T14:41:40.986Z,29.47
2022-08-25T14:44:10.714Z,29.59
2022-08-25T14:46:46.527Z,29.47
2022-08-25T14:49:29.909Z,29.34
2022-08-25T14:52:28.015Z,29.34
2022-08-25T14:54:57.198Z,29.32
2022-08-25T14:57:25.672Z,29.09
2022-08-25T14:59:53.500Z,28.88
2022-08-25T15:02:29.479Z,28.90
2022-08-25T15:05:05.737Z,28.79
2022-08-25T15:07:53.159Z,28.72
2022-08-25T15:10:21.647Z,28.60
2022-08-25T15:12:51.106Z,28.61
2022-08-25T15:15:21.302Z,28.56
2022-08-25T15:17:49.447Z,28.51
2022-08-25T15:20:20.364Z,28.31
2022-08-25T15:22:48.216Z,28.28
2022-08-25T15:25:24.214Z,28.12
2022-08-25T15:27:51.514Z,28.24
2022-08-25T15:30:18.821Z,28.37
2022-08-25T15:32:48.466Z,28.37
2022-08-25T15:35:15.907Z,28.35
2022-08-25T15:37:42.896Z,28.13
2022-08-25T15:40:10.599Z,28.05
2022-08-25T15:42:38.430Z,28.13
2022-08-25T15:45:11.296Z,27.62
2022-08-25T15:47:38.260Z,27.72
2022-08-25T15:50:15.054Z,27.80
2022-08-25T15:52:47.335Z,27.62
2022-08-25T15:55:16.514Z,27.80
2022-08-25T15:57:44.371Z,27.82
2022-08-25T16:00:13.668Z,27.91
2022-08-25T16:02:45.469Z,27.84
2022-08-25T16:05:16.262Z,27.88
2022-08-25T16:07:45.999Z,27.64
2022-08-25T16:10:13.902Z,27.83
2022-08-25T16:12:42.745Z,27.80
2022-08-25T16:15:12.128Z,27.76
2022-08-25T16:17:40.767Z,27.64
2022-08-25T16:20:12.659Z,27.71
2022-08-25T16:22:41.710Z,27.69
2022-08-25T16:25:10.779Z,27.69
2022-08-25T16:27:38.805Z,27.62
2022-08-25T16:30:16.831Z,27.43
2022-08-25T16:32:46.601Z,27.52
2022-08-25T16:35:14.260Z,27.11
2022-08-25T16:37:41.431Z,27.38
2022-08-25T16:40:14.952Z,27.24
2022-08-25T16:42:42.480Z,27.37
2022-08-25T16:45:10.392Z,27.19
2022-08-25T16:47:38.196Z,27.14
2022-08-25T16:50:09.170Z,27.23
2022-08-25T16:52:58.261Z,27.14
2022-08-25T16:55:29.012Z,27.16
2022-08-25T16:58:07.496Z,27.08
2022-08-25T17:00:38.344Z,27.05
2022-08-25T17:03:07.320Z,27.00
2022-08-25T17:05:42.646Z,26.89
2022-08-25T17:08:28.688Z,26.33
2022-08-25T17:11:15.988Z,26.76
2022-08-25T17:13:49.729Z,26.80
2022-08-25T17:16:19.598Z,26.72
2022-08-25T17:18:48.820Z,26.64
2022-08-25T17:21:24.492Z,26.59
2022-08-25T17:23:53.372Z,26.46
2022-08-25T17:26:27.540Z,26.40
2022-08-25T17:28:56.180Z,26.34
2022-08-25T17:31:23.910Z,26.26
2022-08-25T17:33:52.318Z,26.11
2022-08-25T17:36:20.046Z,26.15
2022-08-25T17:38:55.540Z,25.92
2022-08-25T17:41:24.733Z,25.77
2022-08-25T17:43:51.759Z,25.84
2022-08-25T17:46:18.958Z,25.62
2022-08-25T17:48:46.155Z,25.76
2022-08-25T17:51:15.791Z,25.69
2022-08-25T17:53:43.959Z,25.62
2022-08-25T17:56:16.845Z,25.23
2022-08-25T17:58:47.278Z,25.40
2022-08-25T18:01:31.631Z,25.22
2022-08-25T18:03:59.297Z,25.41
2022-08-25T18:06:31.700Z,25.00
2022-08-25T18:09:01.403Z,24.93
2022-08-25T18:11:30.170Z,25.32
2022-08-25T18:13:57.980Z,25.29
2022-08-25T18:16:27.364Z,25.24
2022-08-25T18:18:55.836Z,25.12
2022-08-25T18:21:25.276Z,25.00
2022-08-25T18:23:58.692Z,24.80
2022-08-25T18:26:26.219Z,25.05
2022-08-25T18:28:53.344Z,24.91
2022-08-25T18:31:20.465Z,24.86
2022-08-25T18:33:47.786Z,24.36
2022-08-25T18:36:20.363Z,24.96
2022-08-25T18:39:07.698Z,24.37
2022-08-25T18:41:42.227Z,24.72
2022-08-25T18:44:10.942Z,24.68
2022-08-25T18:46:39.805Z,24.28
2022-08-25T18:49:07.082Z,24.21
2022-08-25T18:51:36.520Z,24.58
2022-08-25T18:54:05.111Z,24.56
2022-08-25T18:56:34.120Z,24.38
2022-08-25T18:59:01.086Z,24.20
2022-08-25T19:01:28.534Z,24.40
2022-08-25T19:03:56.680Z,24.40
2022-08-25T19:06:23.938Z,24.12
2022-08-25T19:08:51.107Z,24.18
2022-08-25T19:11:22.164Z,24.16
2022-08-25T19:13:51.214Z,24.39
2022-08-25T19:16:38.301Z,24.30
2022-08-25T19:19:08.587Z,23.87
2022-08-25T19:21:36.220Z,24.27
2022-08-25T19:24:03.732Z,24.19
2022-08-25T19:26:33.213Z,24.06
2022-08-25T19:29:01.786Z,23.98
2022-08-25T19:31:33.110Z,23.88
2022-08-25T19:34:02.125Z,24.00
2022-08-25T19:36:30.745Z,23.81
2022-08-25T19:39:01.436Z,23.77
2022-08-25T19:41:31.258Z,23.88
2022-08-25T19:43:59.647Z,23.85
2022-08-25T19:46:35.358Z,23.84
2022-08-25T19:49:14.580Z,23.77
2022-08-25T19:51:46.813Z,23.62
2022-08-25T19:54:27.150Z,23.77
2022-08-25T19:56:55.680Z,23.48
2022-08-25T19:59:40.457Z,23.58
2022-08-25T20:02:16.403Z,23.56
2022-08-25T20:04:50.311Z,23.23
2022-08-25T20:07:22.861Z,23.52
2022-08-25T20:09:53.484Z,23.50
2022-08-25T20:12:23.161Z,23.40
2022-08-25T20:14:53.178Z,23.45
2022-08-25T20:17:24.305Z,23.45
2022-08-25T20:20:00.848Z,23.44
2022-08-25T20:22:31.529Z,23.07
2022-08-25T20:25:22.575Z,23.36
2022-08-25T20:27:56.030Z,23.34
2022-08-25T20:30:30.025Z,23.33
2022-08-25T20:32:58.233Z,23.41
2022-08-25T20:35:27.338Z,23.42
2022-08-25T20:37:58.038Z,22.97
2022-08-25T20:40:28.180Z,23.34
2022-08-25T20:43:00.431Z,23.28
2022-08-25T20:45:30.820Z,23.06
2022-08-25T20:47:57.829Z,23.23
2022-08-25T20:50:25.269Z,23.06
2022-08-25T20:52:56.572Z,23.02
2022-08-25T20:55:24.986Z,22.88
2022-08-25T20:57:53.651Z,22.87
2022-08-25T21:00:23.531Z,22.77
2022-08-25T21:02:52.847Z,22.21
2022-08-25T21:05:20.156Z,22.82
2022-08-25T21:07:47.116Z,22.59
2022-08-25T21:10:16.902Z,22.83
2022-08-25T21:12:45.128Z,22.79
2022-08-25T21:15:13.664Z,22.59
2022-08-25T21:17:51.166Z,22.68
2022-08-25T21:20:18.403Z,22.82
2022-08-25T21:22:45.492Z,22.52
2022-08-25T21:25:13.681Z,22.68
2022-08-25T21:27:40.740Z,22.42
2022-08-25T21:30:11.841Z,22.67
2022-08-25T21:32:38.962Z,22.27
2022-08-25T21:35:07.955Z,22.53
2022-08-25T21:37:35.419Z,22.44
2022-08-25T21:40:02.636Z,22.30
2022-08-25T21:42:34.416Z,22.41
2022-08-25T21:45:02.073Z,22.37
2022-08-25T21:47:29.841Z,21.96
2022-08-25T21:49:57.159Z,22.23
2022-08-25T21:52:24.238Z,22.03
2022-08-25T21:54:51.945Z,22.22
2022-08-25T21:57:23.676Z,22.18
2022-08-25T21:59:51.633Z,22.41
2022-08-25T22:02:22.578Z,22.04
2022-08-25T22:04:54.454Z,22.17
2022-08-25T22:07:24.477Z,22.22
2022-08-25T22:09:52.823Z,21.86
2022-08-25T22:12:19.991Z,22.12
2022-08-25T22:14:47.052Z,22.14
2022-08-25T22:17:16.836Z,21.89
2022-08-25T22:19:45.607Z,21.89
2022-08-25T22:22:13.794Z,21.68
2022-08-25T22:24:41.330Z,21.74
2022-08-25T22:27:15.456Z,21.76
2022-08-25T22:29:44.323Z,22.00
2022-08-25T22:32:13.571Z,21.75
2022-08-25T22:34:41.377Z,21.96
2022-08-25T22:37:11.311Z,21.96
2022-08-25T22:39:40.361Z,21.80
2022-08-25T22:42:07.707Z,21.96
2022-08-25T22:44:38.243Z,21.90
2022-08-25T22:47:06.081Z,21.79
2022-08-25T22:49:35.364Z,21.65
2022-08-25T22:52:02.754Z,21.40
2022-08-25T22:54:29.995Z,21.71
2022-08-25T22:57:04.600Z,21.28
2022-08-25T22:59:34.195Z,21.61
2022-08-25T23:02:01.224Z,21.51
2022-08-25T23:04:28.576Z,21.56
2022-08-25T23:06:55.711Z,21.27
2022-08-25T23:09:24.815Z,21.18
2022-08-25T23:11:52.295Z,21.57
2022-08-25T23:14:20.021Z,21.48
2022-08-25T23:16:50.005Z,21.36
2022-08-25T23:19:18.814Z,21.52
2022-08-25T23:22:05.645Z,21.39
2022-08-25T23:24:32.890Z,21.26
2022-08-25T23:27:02.085Z,21.37
2022-08-25T23:29:30.433Z,21.52
2022-08-25T23:31:58.710Z,21.58
2022-08-25T23:34:27.578Z,21.52
2022-08-25T23:36:57.050Z,21.44
2022-08-25T23:39:24.452Z,21.18
2022-08-25T23:41:51.993Z,21.34
2022-08-25T23:44:21.832Z,21.29
2022-08-25T23:46:49.979Z,20.81
2022-08-25T23:49:20.735Z,21.15
2022-08-25T23:51:51.843Z,21.10
2022-08-25T23:54:21.370Z,21.07
2022-08-25T23:56:52.327Z,21.08
2022-08-25T23:59:24.206Z,21.06
